Time;durP1;ratioP1;P1;durP2;ratioP2;P2;SDS_P1;SDS_P2;PMS_P1;PMS_P2;Temp;Humidity;BMP_temperature;BMP_pressure;BME280_temperature;BME280_humidity;BME280_pressure;Samples;Min_cycle;Max_cycle;Signal;HPM_P1;HPM_P2
2022/03/14 00:01:04;;;;;;;7.78;6.97;;;;;;;9.69;100.00;99634.84;4948080;29;20639;-77
2022/03/14 00:03:32;;;;;;;9.52;6.22;;;;;;;9.79;100.00;99637.88;4960183;28;20219;-77
2022/03/14 00:05:59;;;;;;;7.97;7.18;;;;;;;9.82;100.00;99646.66;4957881;28;20257;-78
2022/03/14 00:08:31;;;;;;;8.35;7.32;;;;;;;9.79;100.00;99644.16;4966622;28;20658;-78
2022/03/14 00:10:58;;;;;;;9.18;7.78;;;;;;;9.90;100.00;99648.94;4955834;28;20187;-77
2022/03/14 00:13:25;;;;;;;8.40;7.07;;;;;;;10.03;100.00;99663.44;4962635;28;20662;-77
2022/03/14 00:15:53;;;;;;;8.52;7.63;;;;;;;9.87;100.00;99659.88;4960835;28;20641;-77
2022/03/14 00:18:20;;;;;;;8.20;7.40;;;;;;;9.99;100.00;99667.28;4966187;28;20246;-76
2022/03/14 00:20:48;;;;;;;8.48;7.40;;;;;;;10.08;100.00;99667.72;4960081;28;20310;-76
2022/03/14 00:23:17;;;;;;;6.90;6.20;;;;;;;10.23;100.00;99667.75;4955358;28;20192;-76
2022/03/14 00:25:44;;;;;;;5.95;5.43;;;;;;;10.08;100.00;99671.28;4962098;28;20263;-76
2022/03/14 00:28:12;;;;;;;6.93;5.80;;;;;;;10.18;100.00;99669.81;4959395;28;20275;-76
2022/03/14 00:30:39;;;;;;;5.45;4.95;;;;;;;10.14;100.00;99679.00;4961441;28;20199;-75
2022/03/14 00:33:06;;;;;;;5.75;4.82;;;;;;;10.05;100.00;99676.81;4963116;28;20195;-76
2022/03/14 00:35:33;;;;;;;5.20;4.55;;;;;;;10.06;100.00;99675.84;4954854;28;20625;-76
2022/03/14 00:38:00;;;;;;;4.50;3.50;;;;;;;10.07;100.00;99680.31;4960286;28;20682;-75
2022/03/14 00:40:27;;;;;;;4.80;4.10;;;;;;;10.12;100.00;99688.13;4955028;28;20203;-77
2022/03/14 00:42:54;;;;;;;6.68;4.00;;;;;;;10.23;100.00;99683.03;4954089;28;20195;-76
2022/03/14 00:45:24;;;;;;;4.25;3.42;;;;;;;10.17;100.00;99677.97;4958751;28;20279;-76
2022/03/14 00:47:50;;;;;;;4.65;4.13;;;;;;;10.28;100.00;99688.16;4956446;28;20243;-76
2022/03/14 00:50:18;;;;;;;4.75;3.83;;;;;;;10.42;100.00;99689.16;4958137;28;20195;-76
2022/03/14 00:52:45;;;;;;;3.97;3.15;;;;;;;10.25;100.00;99691.88;4954860;28;20207;-75
2022/03/14 00:55:12;;;;;;;4.95;3.72;;;;;;;10.40;100.00;99696.44;4963091;28;20248;-75
2022/03/14 00:57:38;;;;;;;5.57;3.70;;;;;;;10.35;100.00;99703.03;4955482;28;20214;-75
2022/03/14 01:00:06;;;;;;;3.47;3.15;;;;;;;10.29;100.00;99706.06;4954028;28;20283;-76
2022/03/14 01:02:33;;;;;;;4.18;3.28;;;;;;;10.26;100.00;99709.75;4961852;28;20548;-76
2022/03/14 01:05:00;;;;;;;3.53;3.10;;;;;;;10.22;100.00;99708.19;4953252;28;20276;-75
2022/03/14 01:07:28;;;;;;;3.97;3.58;;;;;;;10.19;100.00;99711.91;4961316;28;20195;-75
2022/03/14 01:09:54;;;;;;;3.30;3.00;;;;;;;10.34;100.00;99718.31;4953717;28;20199;-75
2022/03/14 01:12:21;;;;;;;4.55;4.10;;;;;;;10.29;100.00;99712.31;4953524;29;20235;-76
2022/03/14 01:14:48;;;;;;;3.95;3.53;;;;;;;10.32;100.00;99711.28;4960206;28;20609;-76
2022/03/14 01:17:14;;;;;;;4.25;3.08;;;;;;;10.25;100.00;99715.25;4956192;28;20569;-76
2022/03/14 01:19:41;;;;;;;3.50;3.20;;;;;;;10.26;100.00;99716.97;4961673;28;20224;-76
2022/03/14 01:22:10;;;;;;;3.67;2.38;;;;;;;10.21;100.00;99728.84;4971737;28;20203;-76
2022/03/14 01:24:39;;;;;;;4.20;3.35;;;;;;;10.10;100.00;99728.56;4972567;28;20198;-75
2022/03/14 01:27:06;;;;;;;4.22;3.50;;;;;;;10.21;100.00;99723.47;4972278;28;20187;-76
2022/03/14 01:29:34;;;;;;;3.80;2.95;;;;;;;10.22;100.00;99727.91;4957623;28;20185;-75
2022/03/14 01:32:00;;;;;;;3.83;3.47;;;;;;;10.02;100.00;99738.88;4972295;28;20200;-76
2022/03/14 01:34:27;;;;;;;3.97;3.63;;;;;;;9.91;100.00;99730.50;4972112;28;20197;-76
2022/03/14 01:36:53;;;;;;;5.93;4.40;;;;;;;9.69;100.00;99736.16;4972592;28;20202;-76
2022/03/14 01:39:20;;;;;;;5.50;5.00;;;;;;;9.61;100.00;99744.63;4972430;28;20258;-77
2022/03/14 01:41:48;;;;;;;5.80;5.20;;;;;;;9.49;100.00;99751.47;4971767;28;20279;-77
2022/03/14 01:44:15;;;;;;;6.63;5.20;;;;;;;9.47;100.00;99752.50;4972330;28;20204;-77
2022/03/14 01:46:43;;;;;;;5.72;5.20;;;;;;;9.44;100.00;99747.31;4968179;28;20198;-77
2022/03/14 01:49:11;;;;;;;7.30;4.72;;;;;;;9.32;100.00;99765.78;4972443;28;20218;-77
2022/03/14 01:51:40;;;;;;;5.43;4.60;;;;;;;9.22;100.00;99766.31;4969848;28;20194;-77
2022/03/14 01:54:08;;;;;;;4.28;3.45;;;;;;;9.31;100.00;99768.53;4972325;28;20205;-77
2022/03/14 01:56:35;;;;;;;4.90;4.32;;;;;;;9.31;100.00;99771.22;4972429;28;20709;-77
2022/03/14 01:59:03;;;;;;;4.47;3.97;;;;;;;9.29;100.00;99767.75;4972270;28;20309;-77
2022/03/14 02:01:29;;;;;;;5.25;4.53;;;;;;;9.36;100.00;99767.38;4971784;28;20549;-77
2022/03/14 02:03:56;;;;;;;4.57;4.10;;;;;;;9.08;100.00;99769.69;4971504;28;20295;-77
2022/03/14 02:06:23;;;;;;;7.18;4.15;;;;;;;9.26;100.00;99771.47;4971901;28;20283;-77
2022/03/14 02:08:49;;;;;;;5.00;3.75;;;;;;;9.21;100.00;99781.56;4972392;28;20201;-77
2022/03/14 02:11:16;;;;;;;4.90;3.58;;;;;;;9.20;100.00;99785.19;4972577;28;20196;-77
2022/03/14 02:13:42;;;;;;;3.70;3.20;;;;;;;9.03;100.00;99783.34;4971988;28;20199;-77
2022/03/14 02:16:10;;;;;;;3.63;3.15;;;;;;;9.08;100.00;99777.75;4972256;28;20198;-77
2022/03/14 02:18:37;;;;;;;4.15;3.72;;;;;;;9.03;100.00;99779.81;4971684;28;20222;-77
2022/03/14 02:21:08;;;;;;;3.53;3.22;;;;;;;8.87;100.00;99777.84;4971720;28;20258;-77
2022/03/14 02:23:35;;;;;;;7.55;3.28;;;;;;;8.90;100.00;99785.75;4964777;28;20197;-77
2022/03/14 02:26:01;;;;;;;3.80;2.88;;;;;;;8.94;100.00;99797.22;4972261;28;20197;-77
2022/03/14 02:28:28;;;;;;;4.50;2.70;;;;;;;9.06;100.00;99811.88;4971778;28;20268;-77
2022/03/14 02:30:54;;;;;;;2.80;2.45;;;;;;;8.93;100.00;99814.25;4958521;28;20191;-77
2022/03/14 02:33:22;;;;;;;2.97;2.70;;;;;;;8.91;100.00;99819.72;4971329;28;20198;-77
2022/03/14 02:35:49;;;;;;;4.35;2.97;;;;;;;8.77;100.00;99823.06;4972066;28;20189;-77
2022/03/14 02:38:17;;;;;;;3.78;3.40;;;;;;;8.68;100.00;99823.50;4968213;28;20205;-77
2022/03/14 02:40:46;;;;;;;3.45;2.70;;;;;;;8.67;100.00;99837.00;4971717;28;20197;-77
2022/03/14 02:43:14;;;;;;;3.53;2.65;;;;;;;8.63;100.00;99841.63;4971056;28;20246;-77
2022/03/14 02:45:40;;;;;;;2.85;2.25;;;;;;;8.71;100.00;99847.50;4969102;28;20220;-77
2022/03/14 02:48:07;;;;;;;4.60;2.53;;;;;;;8.67;100.00;99843.22;4967938;28;22157;-78
2022/03/14 02:50:35;;;;;;;4.43;3.10;;;;;;;8.80;100.00;99853.41;4969077;28;20559;-77
2022/03/14 02:53:02;;;;;;;3.88;2.55;;;;;;;8.75;100.00;99857.19;4971931;28;20677;-77
2022/03/14 02:55:30;;;;;;;4.75;2.65;;;;;;;8.76;100.00;99871.47;4971775;28;20204;-77
2022/03/14 02:57:58;;;;;;;3.72;2.50;;;;;;;8.74;100.00;99876.03;4973128;28;20326;-77
2022/03/14 03:00:25;;;;;;;3.00;2.47;;;;;;;8.67;100.00;99872.75;4975390;28;20192;-77
2022/03/14 03:02:52;;;;;;;3.67;2.53;;;;;;;8.82;100.00;99876.56;4964919;28;20206;-77
2022/03/14 03:05:18;;;;;;;3.25;2.42;;;;;;;8.84;100.00;99876.47;4969773;28;20196;-77
2022/03/14 03:07:48;;;;;;;3.55;2.70;;;;;;;8.77;100.00;99887.50;4975575;28;20289;-77
2022/03/14 03:10:16;;;;;;;3.35;2.45;;;;;;;8.80;100.00;99883.81;4975245;28;20194;-77
2022/03/14 03:12:44;;;;;;;2.45;2.05;;;;;;;8.68;100.00;99895.09;4970073;28;20214;-77
2022/03/14 03:15:15;;;;;;;2.97;2.33;;;;;;;8.76;100.00;99898.31;4974946;28;20184;-78
2022/03/14 03:17:41;;;;;;;3.58;2.42;;;;;;;8.78;100.00;99907.16;4975052;28;20192;-77
2022/03/14 03:20:09;;;;;;;3.30;2.35;;;;;;;8.63;100.00;99922.16;4969631;28;20229;-77
2022/03/14 03:22:36;;;;;;;2.00;1.80;;;;;;;8.71;100.00;99914.63;4956037;28;20185;-77
2022/03/14 03:25:03;;;;;;;3.33;1.85;;;;;;;8.89;100.00;99920.97;4957985;28;20205;-77
2022/03/14 03:27:31;;;;;;;2.70;2.10;;;;;;;8.81;100.00;99925.81;4963967;28;20637;-77
2022/03/14 03:29:59;;;;;;;2.80;1.73;;;;;;;8.92;100.00;99928.88;4956182;28;20325;-78
2022/03/14 03:32:26;;;;;;;3.35;2.15;;;;;;;8.78;100.00;99931.34;4955553;29;20207;-77
2022/03/14 03:34:53;;;;;;;2.58;1.70;;;;;;;8.59;100.00;99938.47;4963316;28;20199;-77
2022/03/14 03:37:20;;;;;;;4.78;1.98;;;;;;;8.64;100.00;99944.50;4956013;29;20190;-77
2022/03/14 03:39:46;;;;;;;3.38;1.85;;;;;;;8.86;100.00;99957.81;4960517;28;20221;-77
2022/03/14 03:42:13;;;;;;;3.58;1.65;;;;;;;8.63;100.00;99969.59;4960704;28;20191;-77
2022/03/14 03:44:39;;;;;;;3.65;2.35;;;;;;;8.63;100.00;99989.25;4966578;28;20203;-77
2022/03/14 03:47:07;;;;;;;4.35;2.05;;;;;;;8.73;100.00;99981.69;4966684;28;20190;-77
2022/03/14 03:49:34;;;;;;;2.83;2.00;;;;;;;8.66;100.00;99990.94;4949293;28;20217;-77
2022/03/14 03:52:00;;;;;;;3.15;2.63;;;;;;;8.79;100.00;100000.19;4959143;28;20206;-76
2022/03/14 03:54:27;;;;;;;2.80;1.85;;;;;;;8.68;100.00;100002.47;4959024;28;20203;-76
2022/03/14 03:56:54;;;;;;;3.35;2.47;;;;;;;8.61;100.00;100015.28;4956383;28;20216;-77
2022/03/14 03:59:21;;;;;;;3.92;2.30;;;;;;;8.82;100.00;100008.13;4960325;28;20219;-77
2022/03/14 04:01:48;;;;;;;5.22;2.20;;;;;;;8.84;100.00;100013.41;4955677;28;20623;-75
2022/03/14 04:04:16;;;;;;;5.05;2.10;;;;;;;8.78;100.00;100017.25;4960768;28;20239;-77
2022/03/14 04:06:44;;;;;;;5.95;2.30;;;;;;;8.78;100.00;100022.63;4968163;28;20548;-77
2022/03/14 04:09:11;;;;;;;5.45;2.25;;;;;;;8.81;100.00;100018.94;4957276;28;20247;-77
2022/03/14 04:11:39;;;;;;;3.92;2.90;;;;;;;8.91;100.00;100021.16;4954854;28;21428;-77
2022/03/14 04:14:05;;;;;;;6.85;2.33;;;;;;;8.91;100.00;100029.22;4956810;28;20199;-78
2022/03/14 04:16:32;;;;;;;7.20;2.42;;;;;;;8.91;100.00;100031.88;4956752;28;20545;-77
2022/03/14 04:18:59;;;;;;;7.05;2.33;;;;;;;9.03;100.00;100027.78;4956888;28;20239;-77
2022/03/14 04:21:27;;;;;;;6.85;2.47;;;;;;;8.90;100.00;100031.94;4954744;29;20282;-77
2022/03/14 04:23:54;;;;;;;6.85;1.77;;;;;;;8.92;100.00;100030.94;4947756;29;20576;-77
2022/03/14 04:26:20;;;;;;;5.00;2.03;;;;;;;8.75;100.00;100036.16;4954245;29;20206;-77
2022/03/14 04:28:47;;;;;;;7.72;2.50;;;;;;;8.55;100.00;100024.50;4954912;29;20478;-77
2022/03/14 04:31:15;;;;;;;4.78;1.92;;;;;;;8.51;100.00;100030.06;4954253;29;20195;-76
2022/03/14 04:33:41;;;;;;;5.03;2.42;;;;;;;8.52;100.00;100032.69;4954696;29;20677;-77
2022/03/14 04:36:09;;;;;;;4.20;2.60;;;;;;;8.69;100.00;100044.50;4954552;29;20225;-78
2022/03/14 04:38:36;;;;;;;7.88;2.35;;;;;;;8.71;100.00;100048.88;4954132;29;20225;-77
2022/03/14 04:41:03;;;;;;;7.60;2.38;;;;;;;8.88;100.00;100045.44;4954277;29;20293;-77
2022/03/14 04:43:30;;;;;;;8.60;2.90;;;;;;;8.94;100.00;100050.53;4954196;29;20210;-77
2022/03/14 04:45:56;;;;;;;5.78;3.15;;;;;;;9.08;100.00;100041.00;4954564;29;20626;-77
2022/03/14 04:48:24;;;;;;;7.15;2.58;;;;;;;9.11;100.00;100052.50;4954269;29;20225;-77
2022/03/14 04:50:51;;;;;;;4.85;1.80;;;;;;;9.06;100.00;100049.13;4954405;29;20195;-77
2022/03/14 04:53:18;;;;;;;4.38;2.28;;;;;;;8.93;100.00;100053.28;4954089;29;20207;-77
2022/03/14 04:55:46;;;;;;;4.60;2.13;;;;;;;9.02;100.00;100063.63;4954246;29;20190;-78
2022/03/14 04:58:14;;;;;;;7.22;2.53;;;;;;;9.19;100.00;100065.56;4953576;29;20192;-78
2022/03/14 05:00:41;;;;;;;5.07;2.70;;;;;;;9.01;100.00;100067.25;4953726;29;20221;-77
2022/03/14 05:03:09;;;;;;;5.38;2.50;;;;;;;8.80;100.00;100084.31;4950829;29;20692;-77
2022/03/14 05:05:36;;;;;;;3.97;2.30;;;;;;;8.74;100.00;100082.75;4952904;29;20286;-77
2022/03/14 05:08:03;;;;;;;4.13;2.47;;;;;;;8.90;100.00;100082.97;4953819;29;20194;-77
2022/03/14 05:10:30;;;;;;;7.35;2.42;;;;;;;8.75;100.00;100081.81;4953990;29;20282;-77
2022/03/14 05:13:00;;;;;;;4.97;2.70;;;;;;;8.63;100.00;100079.66;4950597;29;20185;-78
2022/03/14 05:15:27;;;;;;;7.95;2.33;;;;;;;8.45;100.00;100082.19;4945057;29;20541;-77
2022/03/14 05:17:54;;;;;;;5.97;2.30;;;;;;;8.61;100.00;100085.09;4947588;29;20201;-77
2022/03/14 05:20:21;;;;;;;4.28;2.38;;;;;;;8.67;100.00;100087.53;4954023;28;20257;-77
2022/03/14 05:22:50;;;;;;;5.70;2.30;;;;;;;8.60;100.00;100086.03;4953486;28;20190;-77
2022/03/14 05:25:18;;;;;;;7.55;2.40;;;;;;;8.55;100.00;100096.97;4956187;28;20526;-77
2022/03/14 05:27:45;;;;;;;4.20;2.20;;;;;;;8.63;100.00;100093.94;4963068;28;20193;-77
2022/03/14 05:30:14;;;;;;;7.18;2.67;;;;;;;8.72;100.00;100101.63;4971749;28;20890;-75
2022/03/14 05:32:40;;;;;;;4.25;2.67;;;;;;;8.81;100.00;100103.03;4970356;28;20213;-76
2022/03/14 05:35:08;;;;;;;3.25;2.10;;;;;;;8.95;100.00;100099.75;4960370;28;20663;-76
2022/03/14 05:37:35;;;;;;;4.78;2.20;;;;;;;8.97;100.00;100106.81;4958519;28;20194;-76
2022/03/14 05:40:02;;;;;;;5.50;2.50;;;;;;;8.82;100.00;100104.81;4956133;28;20674;-75
2022/03/14 05:42:29;;;;;;;7.50;2.85;;;;;;;8.90;100.00;100105.31;4955875;28;20669;-77
2022/03/14 05:44:55;;;;;;;4.85;2.58;;;;;;;8.90;100.00;100116.06;4955646;28;20644;-77
2022/03/14 05:47:23;;;;;;;5.43;2.80;;;;;;;8.93;100.00;100102.53;4959526;28;20211;-76
2022/03/14 05:49:50;;;;;;;4.63;2.30;;;;;;;8.73;100.00;100107.88;4955488;28;20196;-76
2022/03/14 05:52:19;;;;;;;6.63;3.47;;;;;;;8.79;100.00;100107.59;4952467;28;20200;-76
2022/03/14 05:54:45;;;;;;;6.32;2.80;;;;;;;8.61;100.00;100111.06;4953187;28;20285;-76
2022/03/14 05:57:12;;;;;;;5.80;2.50;;;;;;;8.90;100.00;100118.75;4962063;28;20655;-76
2022/03/14 05:59:38;;;;;;;3.42;2.50;;;;;;;8.98;100.00;100121.13;4956481;28;20698;-76
2022/03/14 06:02:10;;;;;;;8.73;3.40;;;;;;;9.08;100.00;100125.13;4957611;28;20526;-76
2022/03/14 06:04:38;;;;;;;6.10;2.53;;;;;;;9.19;100.00;100136.28;4947411;28;20282;-76
2022/03/14 06:07:05;;;;;;;6.50;2.90;;;;;;;9.21;100.00;100143.44;4953806;28;20618;-75
2022/03/14 06:09:32;;;;;;;3.67;2.30;;;;;;;9.24;100.00;100143.28;4958728;28;20650;-76
2022/03/14 06:11:58;;;;;;;10.35;3.58;;;;;;;9.30;100.00;100141.19;4951643;29;20310;-76
2022/03/14 06:14:25;;;;;;;9.13;3.40;;;;;;;9.30;100.00;100154.63;4952162;28;20196;-75
2022/03/14 06:16:51;;;;;;;4.78;2.63;;;;;;;9.39;100.00;100156.91;4953863;28;20647;-78
2022/03/14 06:19:18;;;;;;;5.30;2.65;;;;;;;9.37;100.00;100150.72;4959291;28;20589;-76
2022/03/14 06:21:46;;;;;;;5.68;2.10;;;;;;;9.38;100.00;100163.25;4972171;28;20536;-76
2022/03/14 06:24:12;;;;;;;4.22;2.30;;;;;;;9.24;100.00;100164.78;4964471;28;20285;-76
2022/03/14 06:26:39;;;;;;;3.70;2.42;;;;;;;9.22;100.00;100180.97;4971747;28;20226;-77
2022/03/14 06:29:05;;;;;;;9.05;3.00;;;;;;;9.29;100.00;100186.94;4969648;28;20191;-74
2022/03/14 06:31:33;;;;;;;8.90;2.78;;;;;;;9.16;100.00;100195.56;4963046;28;20197;-75
2022/03/14 06:33:59;;;;;;;8.60;2.35;;;;;;;9.10;100.00;100194.94;4973841;28;20204;-74
2022/03/14 06:36:27;;;;;;;5.00;2.85;;;;;;;8.93;100.00;100193.84;4974719;28;20202;-76
2022/03/14 06:38:59;;;;;;;11.60;2.83;;;;;;;9.12;100.00;100199.31;4974358;28;20288;-76
2022/03/14 06:41:26;;;;;;;3.67;2.10;;;;;;;9.37;100.00;100204.50;4975035;28;20673;-76
2022/03/14 06:43:55;;;;;;;6.18;2.42;;;;;;;9.36;100.00;100204.53;4973821;28;20212;-77
2022/03/14 06:46:22;;;;;;;6.93;2.60;;;;;;;9.30;100.00;100207.53;4975077;28;20190;-76
2022/03/14 06:48:49;;;;;;;4.57;2.05;;;;;;;9.32;100.00;100201.13;4973440;28;20194;-77
2022/03/14 06:51:15;;;;;;;4.95;2.78;;;;;;;9.46;100.00;100210.41;4974445;28;20707;-76
2022/03/14 06:53:42;;;;;;;4.70;2.65;;;;;;;9.41;100.00;100216.00;4974559;28;20285;-77
2022/03/14 06:56:10;;;;;;;8.23;4.47;;;;;;;9.61;100.00;100217.81;4973958;28;20213;-76
2022/03/14 06:58:37;;;;;;;4.22;3.30;;;;;;;9.62;100.00;100221.38;4974742;28;20190;-75
2022/03/14 07:01:04;;;;;;;4.63;2.60;;;;;;;9.67;100.00;100222.91;4974748;28;20230;-75
2022/03/14 07:03:30;;;;;;;9.90;4.30;;;;;;;9.87;100.00;100226.53;4974442;28;20268;-76
2022/03/14 07:05:57;;;;;;;8.02;4.55;;;;;;;9.93;100.00;100232.50;4974748;28;20532;-76
2022/03/14 07:08:23;;;;;;;6.95;3.60;;;;;;;9.91;100.00;100231.69;4974801;28;20191;-76
2022/03/14 07:10:50;;;;;;;5.72;4.20;;;;;;;9.92;100.00;100237.94;4974238;28;20184;-76
2022/03/14 07:13:18;;;;;;;9.43;4.10;;;;;;;9.78;100.00;100241.25;4974187;28;20204;-75
2022/03/14 07:15:44;;;;;;;10.13;4.65;;;;;;;9.73;100.00;100244.16;4974054;28;20598;-76
2022/03/14 07:18:11;;;;;;;9.57;4.95;;;;;;;9.84;100.00;100251.75;4974275;28;20552;-78
2022/03/14 07:20:37;;;;;;;8.73;5.72;;;;;;;9.89;100.00;100255.09;4972468;28;20234;-77
2022/03/14 07:23:06;;;;;;;8.57;5.25;;;;;;;9.94;100.00;100262.97;4963045;28;20189;-76
2022/03/14 07:25:36;;;;;;;10.18;4.65;;;;;;;9.45;100.00;100265.09;4955209;28;20229;-76
2022/03/14 07:28:05;;;;;;;9.50;4.53;;;;;;;9.79;100.00;100276.16;4969328;28;20203;-77
2022/03/14 07:30:33;;;;;;;7.60;5.35;;;;;;;10.05;100.00;100274.09;4963610;28;20614;-76
2022/03/14 07:33:00;;;;;;;7.85;5.15;;;;;;;10.20;100.00;100273.41;4966451;28;20185;-76
2022/03/14 07:35:27;;;;;;;5.40;4.35;;;;;;;9.89;100.00;100275.75;4963949;28;20203;-77
2022/03/14 07:37:54;;;;;;;5.63;4.90;;;;;;;10.02;100.00;100276.94;4959095;28;20196;-77
2022/03/14 07:40:21;;;;;;;7.65;5.28;;;;;;;10.25;100.00;100280.41;4966468;28;20310;-77
2022/03/14 07:42:49;;;;;;;7.47;4.15;;;;;;;10.40;100.00;100283.31;4960427;28;20211;-76
2022/03/14 07:45:19;;;;;;;6.57;4.82;;;;;;;10.55;100.00;100280.81;4959003;28;20193;-77
2022/03/14 07:47:47;;;;;;;12.70;6.47;;;;;;;10.66;100.00;100288.41;4957472;28;20245;-77
2022/03/14 07:50:15;;;;;;;9.10;5.35;;;;;;;10.63;100.00;100287.59;4962081;28;20279;-77
2022/03/14 07:52:43;;;;;;;6.30;4.10;;;;;;;10.44;100.00;100295.66;4958732;28;20195;-76
2022/03/14 07:55:11;;;;;;;8.15;3.90;;;;;;;10.73;100.00;100300.63;4959276;28;20231;-75
2022/03/14 07:57:38;;;;;;;6.65;4.80;;;;;;;10.06;100.00;100304.56;4962533;28;20192;-75
2022/03/14 08:00:09;;;;;;;12.95;4.90;;;;;;;10.07;100.00;100319.78;4962372;28;20215;-76
2022/03/14 08:02:37;;;;;;;8.02;5.43;;;;;;;10.10;100.00;100320.50;4957685;28;20199;-76
2022/03/14 08:05:05;;;;;;;12.73;4.55;;;;;;;10.23;100.00;100324.41;4965893;28;20639;-76
2022/03/14 08:07:34;;;;;;;7.03;4.65;;;;;;;9.98;100.00;100329.13;4955667;28;20208;-76
2022/03/14 08:10:09;;;;;;;11.73;6.30;;;;;;;10.32;100.00;100325.84;4957311;28;20192;-76
2022/03/14 08:12:43;;;;;;;8.43;5.60;;;;;;;10.71;100.00;100335.69;4952864;28;20192;-76
2022/03/14 08:15:10;;;;;;;9.60;6.00;;;;;;;10.66;100.00;100331.50;4944724;28;20192;-75
2022/03/14 08:17:37;;;;;;;11.05;7.05;;;;;;;10.74;100.00;100342.75;4960326;28;20250;-76
2022/03/14 08:20:06;;;;;;;10.43;6.03;;;;;;;10.66;100.00;100334.19;4960008;28;20232;-75
2022/03/14 08:22:32;;;;;;;10.35;6.07;;;;;;;10.52;100.00;100351.00;4964726;28;20209;-77
2022/03/14 08:24:59;;;;;;;7.47;6.25;;;;;;;10.37;100.00;100355.25;4969665;28;20199;-77
2022/03/14 08:27:26;;;;;;;8.65;6.15;;;;;;;10.35;100.00;100359.81;4973474;28;20199;-76
2022/03/14 08:29:52;;;;;;;10.80;7.25;;;;;;;10.32;100.00;100355.44;4973349;28;20697;-76
2022/03/14 08:32:22;;;;;;;14.13;10.23;;;;;;;10.54;100.00;100363.44;4965566;28;20192;-76
2022/03/14 08:34:52;;;;;;;7.80;6.35;;;;;;;10.21;100.00;100363.97;4974067;28;20236;-76
2022/03/14 08:37:20;;;;;;;14.85;7.05;;;;;;;10.28;100.00;100364.56;4973714;28;20176;-76
2022/03/14 08:39:48;;;;;;;8.98;6.15;;;;;;;10.56;100.00;100371.41;4972909;28;20208;-76
2022/03/14 08:42:14;;;;;;;8.48;6.30;;;;;;;10.72;100.00;100361.72;4973513;28;20204;-76
2022/03/14 08:44:41;;;;;;;9.35;6.07;;;;;;;10.48;100.00;100374.47;4967791;28;20192;-76
2022/03/14 08:47:08;;;;;;;11.23;8.05;;;;;;;10.35;100.00;100373.28;4973416;28;20200;-77
2022/03/14 08:49:35;;;;;;;12.88;7.88;;;;;;;10.47;100.00;100375.44;4965115;28;20196;-75
2022/03/14 08:52:02;;;;;;;11.20;6.90;;;;;;;9.82;100.00;100383.59;4973498;28;20210;-76
2022/03/14 08:54:30;;;;;;;8.30;6.20;;;;;;;9.98;100.00;100377.56;4971307;28;20208;-76
2022/03/14 08:56:56;;;;;;;9.73;7.60;;;;;;;10.17;100.00;100391.09;4961893;28;20246;-76
2022/03/14 08:59:24;;;;;;;10.90;7.15;;;;;;;10.19;100.00;100379.31;4969944;28;20311;-76
2022/03/14 09:01:50;;;;;;;11.93;6.68;;;;;;;10.01;100.00;100382.81;4965727;28;20678;-76
2022/03/14 09:04:17;;;;;;;11.63;6.95;;;;;;;10.39;100.00;100391.03;4966356;28;20185;-76
2022/03/14 09:06:44;;;;;;;14.38;7.28;;;;;;;10.33;100.00;100400.25;4973133;28;20626;-76
2022/03/14 09:09:12;;;;;;;11.43;7.10;;;;;;;10.31;100.00;100399.47;4973016;28;20257;-76
2022/03/14 09:11:40;;;;;;;8.63;6.18;;;;;;;10.29;100.00;100405.84;4973260;28;20267;-76
2022/03/14 09:14:07;;;;;;;11.57;6.43;;;;;;;10.44;100.00;100405.16;4965266;28;20623;-76
2022/03/14 09:16:35;;;;;;;9.45;6.38;;;;;;;10.73;100.00;100414.63;4972968;28;20210;-76
2022/03/14 09:19:01;;;;;;;7.63;5.82;;;;;;;10.96;100.00;100402.78;4972637;28;20243;-76
2022/03/14 09:21:29;;;;;;;15.25;7.35;;;;;;;10.93;100.00;100404.75;4973048;28;20685;-77
2022/03/14 09:23:56;;;;;;;10.50;6.65;;;;;;;10.98;100.00;100416.19;4973010;28;20208;-76
2022/03/14 09:26:22;;;;;;;13.73;6.68;;;;;;;11.03;100.00;100419.53;4973128;28;20188;-76
2022/03/14 09:28:50;;;;;;;13.05;7.15;;;;;;;10.95;100.00;100427.13;4972272;28;20199;-76
2022/03/14 09:31:17;;;;;;;10.55;7.40;;;;;;;11.04;100.00;100438.34;4970072;28;20196;-77
2022/03/14 09:33:44;;;;;;;12.73;7.80;;;;;;;11.21;98.36;100425.88;4972646;28;20199;-76
2022/03/14 09:36:11;;;;;;;16.10;8.32;;;;;;;11.36;97.55;100421.59;4973073;28;20188;-76
2022/03/14 09:38:37;;;;;;;11.25;7.90;;;;;;;11.61;94.30;100421.25;4964886;28;20195;-76
2022/03/14 09:41:05;;;;;;;11.85;8.60;;;;;;;11.30;95.10;100420.03;4970897;28;20689;-76
2022/03/14 09:43:35;;;;;;;12.38;8.38;;;;;;;11.58;94.93;100421.44;4965310;28;20561;-77
2022/03/14 09:46:06;;;;;;;13.02;8.05;;;;;;;11.41;95.65;100431.19;4972053;28;20658;-77
2022/03/14 09:48:37;;;;;;;10.68;7.78;;;;;;;11.14;97.59;100433.38;4961212;28;20196;-76
2022/03/14 09:51:05;;;;;;;14.07;8.85;;;;;;;11.21;97.93;100437.53;4949796;29;20192;-76
2022/03/14 09:53:33;;;;;;;12.77;8.73;;;;;;;11.40;95.71;100442.06;4961491;28;20295;-76
2022/03/14 09:56:00;;;;;;;13.95;9.45;;;;;;;11.30;97.12;100441.63;4972513;28;20302;-77
2022/03/14 09:58:27;;;;;;;19.73;9.35;;;;;;;11.41;96.24;100444.66;4964670;28;20279;-76
2022/03/14 10:00:54;;;;;;;14.43;8.05;;;;;;;11.70;94.05;100450.47;4971817;28;20203;-76
2022/03/14 10:03:23;;;;;;;17.60;7.38;;;;;;;11.93;91.65;100457.47;4970820;28;20235;-76
2022/03/14 10:05:50;;;;;;;11.23;6.80;;;;;;;11.64;93.95;100450.78;4972724;28;20211;-77
2022/03/14 10:08:17;;;;;;;13.45;7.13;;;;;;;12.02;90.79;100461.53;4969432;28;20200;-77
2022/03/14 10:10:44;;;;;;;10.18;6.57;;;;;;;12.60;85.48;100474.72;4951977;28;20196;-77
2022/03/14 10:13:11;;;;;;;11.10;7.63;;;;;;;12.17;87.75;100476.09;4973165;28;20192;-77
2022/03/14 10:15:40;;;;;;;10.35;8.50;;;;;;;11.89;88.60;100469.34;4976096;28;20235;-77
2022/03/14 10:18:11;;;;;;;9.63;7.65;;;;;;;11.72;90.07;100469.31;4976572;28;20544;-76
2022/03/14 10:20:54;;;;;;;14.25;9.18;;;;;;;11.87;88.70;100468.50;4975749;28;20238;-77
2022/03/14 10:23:30;;;;;;;16.50;9.35;;;;;;;12.40;84.90;100466.78;4975939;28;20219;-77
2022/03/14 10:25:59;;;;;;;11.20;8.70;;;;;;;12.22;83.42;100455.13;4971931;28;20188;-77
2022/03/14 10:28:29;;;;;;;9.77;8.02;;;;;;;12.42;81.13;100459.50;4971967;28;20217;-77
2022/03/14 10:30:57;;;;;;;10.00;5.53;;;;;;;12.65;78.96;100453.75;4970377;28;20670;-76
2022/03/14 10:33:24;;;;;;;7.28;5.57;;;;;;;13.22;74.46;100466.88;4975303;28;20224;-77
2022/03/14 10:35:55;;;;;;;9.65;6.70;;;;;;;13.01;76.84;100468.94;4976041;28;20295;-77
2022/03/14 10:38:21;;;;;;;12.73;6.50;;;;;;;12.82;79.33;100466.38;4974653;28;20216;-76
2022/03/14 10:40:48;;;;;;;9.35;5.57;;;;;;;12.44;80.17;100468.41;4974541;28;20208;-77
2022/03/14 10:43:23;;;;;;;6.00;5.03;;;;;;;12.57;79.49;100477.56;4968218;28;20201;-76
2022/03/14 10:45:49;;;;;;;10.23;5.57;;;;;;;12.84;77.40;100468.97;4975678;28;20186;-77
2022/03/14 10:48:16;;;;;;;5.78;4.18;;;;;;;12.53;77.73;100476.00;4975808;28;20203;-76
2022/03/14 10:50:43;;;;;;;7.40;4.40;;;;;;;13.31;73.75;100470.94;4975092;28;20200;-77
2022/03/14 10:53:13;;;;;;;7.25;4.38;;;;;;;13.00;73.97;100467.22;4972567;28;20196;-77
2022/03/14 10:55:42;;;;;;;6.03;3.40;;;;;;;13.25;71.39;100469.44;4972650;28;20534;-77
2022/03/14 10:58:11;;;;;;;5.53;3.22;;;;;;;13.36;69.79;100466.13;4969389;28;20899;-76
2022/03/14 11:00:52;;;;;;;7.25;3.20;;;;;;;13.40;68.63;100462.31;4972888;28;20555;-77
2022/03/14 11:03:26;;;;;;;5.55;3.58;;;;;;;13.28;68.87;100463.00;4967376;28;20667;-76
2022/03/14 11:05:57;;;;;;;5.40;3.05;;;;;;;13.36;68.48;100468.84;4969609;28;20197;-75
2022/03/14 11:08:36;;;;;;;5.40;2.80;;;;;;;13.56;66.19;100459.59;4966929;28;20201;-75
2022/03/14 11:11:05;;;;;;;5.00;2.40;;;;;;;13.35;66.85;100478.81;4957147;28;20204;-76
2022/03/14 11:13:37;;;;;;;5.32;2.53;;;;;;;13.02;67.37;100475.22;4955324;28;20186;-76
2022/03/14 11:16:04;;;;;;;3.30;2.40;;;;;;;12.58;71.55;100470.38;4959705;28;20732;-76
2022/03/14 11:18:31;;;;;;;5.70;1.88;;;;;;;12.51;71.82;100469.81;4960621;28;20318;-76
2022/03/14 11:21:00;;;;;;;6.22;2.53;;;;;;;12.68;71.06;100466.22;4953878;29;20327;-77
2022/03/14 11:23:27;;;;;;;7.35;2.08;;;;;;;12.65;70.04;100472.66;4956250;28;20220;-77
2022/03/14 11:25:56;;;;;;;4.55;2.30;;;;;;;12.40;71.07;100461.41;4963930;28;20203;-76